Time;durP1;ratioP1;P1;durP2;ratioP2;P2;SDS_P1;SDS_P2;PMS_P1;PMS_P2;Temp;Humidity;BMP_temperature;BMP_pressure;BME280_temperature;BME280_humidity;BME280_pressure;Samples;Min_cycle;Max_cycle;Signal;HPM_P1;HPM_P2
2022/01/24 00:00:16;;;;;;;4.87;2.70;;;6.30;99.90;;;;;;5038867;28;20469;-68
2022/01/24 00:02:44;;;;;;;3.73;2.67;;;6.30;99.90;;;;;;5051078;28;20446;-69
2022/01/24 00:05:11;;;;;;;3.23;2.60;;;6.30;99.90;;;;;;5051736;28;20430;-70
2022/01/24 00:07:37;;;;;;;3.60;3.30;;;6.30;99.90;;;;;;5049975;28;20482;-69
2022/01/24 00:10:08;;;;;;;4.70;3.67;;;6.30;99.90;;;;;;5058834;28;20488;-70
2022/01/24 00:12:55;;;;;;;;;;;;;;;;;;;;;
2022/01/24 00:17:48;;;;;;;3.77;2.97;;;6.30;99.90;;;;;;5059271;28;21057;-70
2022/01/24 00:28:14;;;;;;;4.23;3.63;;;6.30;99.90;;;;;;5063338;28;20442;-69
2022/01/24 00:30:40;;;;;;;5.20;4.00;;;6.30;99.90;;;;;;5054214;28;20450;-69
2022/01/24 00:33:06;;;;;;;4.23;2.73;;;6.20;99.90;;;;;;5058557;28;20876;-69
2022/01/24 00:35:32;;;;;;;5.83;3.10;;;6.20;99.90;;;;;;5061450;28;20971;-69
2022/01/24 00:38:01;;;;;;;3.90;3.00;;;6.20;99.90;;;;;;5052179;28;20470;-70
2022/01/24 00:40:29;;;;;;;3.20;2.80;;;6.20;99.90;;;;;;5068942;28;20226;-69
2022/01/24 00:48:34;;;;;;;;;;;;;;;;;;;;;
2022/01/24 00:56:10;;;;;;;4.00;2.83;;;6.20;99.90;;;;;;5050651;28;20446;-70
2022/01/24 00:58:36;;;;;;;4.30;3.10;;;6.10;99.90;;;;;;5050173;28;20478;-70
2022/01/24 01:01:04;;;;;;;2.93;2.20;;;6.10;99.90;;;;;;5047355;28;20506;-70
2022/01/24 01:03:30;;;;;;;2.57;2.37;;;6.10;99.90;;;;;;5050553;28;20458;-69
2022/01/24 01:19:04;;;;;;;2.57;2.37;;;5.90;99.90;;;;;;5050216;28;20478;-70
2022/01/24 01:21:30;;;;;;;3.30;2.47;;;5.90;99.90;;;;;;5051199;28;20830;-70
2022/01/24 01:23:58;;;;;;;2.63;2.43;;;5.80;99.90;;;;;;5049092;28;20458;-70
2022/01/24 01:26:41;;;;;;;2.60;2.30;;;5.80;99.90;;;;;;5049737;28;20247;-69
2022/01/24 01:29:17;;;;;;;2.47;1.93;;;5.80;99.90;;;;;;5049235;28;20468;-70
2022/01/24 01:34:36;;;;;;;2.43;2.13;;;5.70;99.90;;;;;;5048361;28;20443;-70
2022/01/24 01:53:50;;;;;;;2.47;2.27;;;5.60;99.90;;;;;;5057478;28;20450;-70
2022/01/24 01:56:13;;;;;;;2.83;2.17;;;5.60;99.90;;;;;;5049676;28;20451;-69
2022/01/24 01:58:39;;;;;;;7.77;2.20;;;5.60;99.90;;;;;;5051281;28;20474;-69
2022/01/24 02:01:05;;;;;;;2.73;2.50;;;5.50;99.90;;;;;;5039920;28;20222;-69
2022/01/24 02:03:32;;;;;;;3.40;2.07;;;5.50;99.90;;;;;;5054117;28;20239;-68
2022/01/24 02:05:58;;;;;;;5.07;3.27;;;5.40;99.90;;;;;;5051453;28;20533;-69
2022/01/24 02:08:32;;;;;;;2.57;2.20;;;5.40;99.90;;;;;;5048647;28;20447;-69
2022/01/24 02:10:59;;;;;;;2.20;2.00;;;5.40;99.90;;;;;;5049577;28;20458;-69
2022/01/24 02:13:26;;;;;;;2.30;2.10;;;5.40;99.90;;;;;;5050234;28;20450;-69
2022/01/24 02:26:02;;;;;;;3.93;2.40;;;5.30;99.90;;;;;;5048952;28;20813;-70
2022/01/24 02:28:39;;;;;;;2.37;2.10;;;5.30;99.90;;;;;;5049767;28;20482;-70
2022/01/24 02:33:31;;;;;;;3.13;2.50;;;5.20;99.90;;;;;;5044292;28;20971;-68
2022/01/24 02:35:57;;;;;;;4.30;2.30;;;5.20;99.90;;;;;;5049176;28;20219;-70
2022/01/24 02:49:13;;;;;;;3.60;2.17;;;5.10;99.90;;;;;;5047696;28;20504;-70
2022/01/24 02:51:46;;;;;;;;;;;;;;;;;;;;;
2022/01/24 02:54:24;;;;;;;4.03;1.90;;;4.90;99.90;;;;;;5046828;28;20500;-71
2022/01/24 02:56:50;;;;;;;2.40;2.20;;;4.90;99.90;;;;;;5056268;28;20462;-69
2022/01/24 02:59:17;;;;;;;3.53;2.00;;;4.90;99.90;;;;;;5067966;28;20541;-69
2022/01/24 03:01:44;;;;;;;3.20;1.97;;;5.00;99.90;;;;;;5067868;28;20540;-69
2022/01/24 03:04:10;;;;;;;2.30;1.97;;;4.90;99.90;;;;;;5036172;28;20457;-70
2022/01/24 03:06:36;;;;;;;2.70;2.50;;;4.90;99.90;;;;;;5065082;28;20454;-70
2022/01/24 03:09:04;;;;;;;2.53;2.33;;;4.90;99.90;;;;;;5069868;28;20223;-70
2022/01/24 03:11:52;;;;;;;3.87;2.20;;;4.90;99.90;;;;;;5035356;28;20492;-69
2022/01/24 03:14:23;;;;;;;4.33;3.30;;;4.80;99.90;;;;;;5052229;28;20450;-69
2022/01/24 03:16:49;;;;;;;4.37;2.60;;;4.80;99.90;;;;;;5042949;28;20460;-69
2022/01/24 03:19:16;;;;;;;3.67;2.50;;;4.90;99.90;;;;;;5071473;28;20463;-68
2022/01/24 03:21:42;;;;;;;3.17;2.87;;;4.80;99.90;;;;;;5073236;28;20541;-69
2022/01/24 03:24:12;;;;;;;2.70;1.77;;;4.80;99.90;;;;;;5069445;28;20450;-69
2022/01/24 03:26:38;;;;;;;3.60;2.30;;;4.80;99.90;;;;;;5063291;28;20471;-68
2022/01/24 03:29:03;;;;;;;2.80;2.50;;;4.80;99.90;;;;;;5054224;28;20462;-70
2022/01/24 03:31:29;;;;;;;4.37;2.30;;;4.70;99.90;;;;;;5072737;28;20215;-69
2022/01/24 03:33:55;;;;;;;3.30;2.60;;;4.80;99.90;;;;;;5072357;28;20219;-69
2022/01/24 03:36:21;;;;;;;2.50;2.10;;;4.70;99.90;;;;;;5073052;28;20219;-69
2022/01/24 03:38:47;;;;;;;2.67;2.33;;;4.50;99.90;;;;;;5074434;28;20219;-69
2022/01/24 03:41:13;;;;;;;2.53;2.30;;;4.60;99.90;;;;;;5071272;28;20226;-69
2022/01/24 03:43:39;;;;;;;2.20;2.00;;;4.60;99.90;;;;;;5054818;28;20449;-69
2022/01/24 03:48:50;;;;;;;2.10;1.80;;;4.60;99.90;;;;;;5065644;28;20214;-70
2022/01/24 03:51:17;;;;;;;3.20;2.57;;;4.50;99.90;;;;;;5034423;28;20454;-70
2022/01/24 03:53:45;;;;;;;6.53;3.13;;;4.50;99.90;;;;;;5052478;28;20458;-69
2022/01/24 03:56:11;;;;;;;2.60;1.93;;;4.50;99.90;;;;;;5048251;28;20450;-69
2022/01/24 03:58:37;;;;;;;3.70;2.90;;;4.50;99.90;;;;;;5057417;28;20484;-69
2022/01/24 04:01:06;;;;;;;3.60;2.67;;;4.60;99.90;;;;;;5060106;28;20450;-70
2022/01/24 04:03:33;;;;;;;2.67;2.47;;;4.50;99.90;;;;;;5059242;28;20516;-68
2022/01/24 04:05:58;;;;;;;3.67;2.40;;;4.60;99.90;;;;;;5051732;28;20459;-70
2022/01/24 04:08:24;;;;;;;3.23;2.27;;;4.50;99.90;;;;;;5052314;28;20864;-69
2022/01/24 04:10:54;;;;;;;3.93;2.80;;;4.40;99.90;;;;;;5033428;28;20226;-69
2022/01/24 04:23:49;;;;;;;2.60;2.40;;;4.40;99.90;;;;;;5048046;28;20478;-69
2022/01/24 04:26:15;;;;;;;4.07;2.97;;;4.40;99.90;;;;;;5049338;28;20943;-68
2022/01/24 04:28:41;;;;;;;3.27;2.30;;;4.40;99.90;;;;;;5050579;28;20484;-69
2022/01/24 04:31:07;;;;;;;3.10;2.60;;;4.40;99.90;;;;;;5033725;28;20866;-69
2022/01/24 04:33:33;;;;;;;3.30;2.73;;;4.40;99.90;;;;;;5049543;28;20880;-69
2022/01/24 04:35:59;;;;;;;3.30;3.00;;;4.30;99.90;;;;;;5051110;28;21013;-69
2022/01/24 04:38:25;;;;;;;3.80;3.03;;;4.30;99.90;;;;;;5050586;28;20522;-68
2022/01/24 04:40:59;;;;;;;3.03;2.80;;;4.30;99.90;;;;;;5050166;28;20446;-70
2022/01/24 04:43:49;;;;;;;3.27;2.57;;;4.30;99.90;;;;;;5040670;28;20450;-69
2022/01/24 04:51:50;;;;;;;;;;;;;;;;;;;;;
2022/01/24 04:56:29;;;;;;;3.03;2.40;;;4.20;99.90;;;;;;5048478;28;20311;-69
2022/01/24 04:58:55;;;;;;;4.10;3.07;;;4.20;99.90;;;;;;5048515;28;20545;-69
2022/01/24 05:01:21;;;;;;;6.33;2.60;;;4.20;99.90;;;;;;5053601;28;20212;-68
2022/01/24 05:03:46;;;;;;;3.10;2.53;;;4.20;99.90;;;;;;5053218;28;20727;-69
2022/01/24 05:06:12;;;;;;;4.20;2.77;;;4.20;99.90;;;;;;5048515;28;20207;-68
2022/01/24 05:08:38;;;;;;;2.83;2.57;;;4.20;99.90;;;;;;5059393;28;20717;-70
2022/01/24 05:11:08;;;;;;;4.10;3.10;;;4.20;99.90;;;;;;5059833;28;20250;-69
2022/01/24 05:24:24;;;;;;;5.37;3.77;;;4.10;99.90;;;;;;5058369;28;20462;-68
2022/01/24 05:26:49;;;;;;;6.80;4.13;;;4.10;99.90;;;;;;5032418;28;20451;-69
2022/01/24 05:29:15;;;;;;;4.73;4.00;;;4.00;99.90;;;;;;5031605;28;20665;-68
2022/01/24 05:31:41;;;;;;;5.93;3.70;;;4.00;99.90;;;;;;5049523;28;20239;-69
2022/01/24 05:34:07;;;;;;;3.97;3.10;;;4.00;99.90;;;;;;5048740;28;20258;-69
2022/01/24 05:36:32;;;;;;;4.10;3.70;;;4.00;99.90;;;;;;5049662;28;20234;-69
2022/01/24 05:39:00;;;;;;;3.37;3.07;;;4.00;99.90;;;;;;5050337;28;20224;-69
2022/01/24 05:41:27;;;;;;;3.67;3.30;;;4.00;99.90;;;;;;5058851;28;20212;-69
2022/01/24 05:43:53;;;;;;;4.17;3.40;;;4.00;99.90;;;;;;5050104;28;20489;-69
2022/01/24 05:46:18;;;;;;;3.93;2.80;;;3.90;99.90;;;;;;5041597;28;20479;-70
2022/01/24 05:48:44;;;;;;;4.13;3.13;;;3.90;99.90;;;;;;5050458;28;20216;-69
2022/01/24 05:51:10;;;;;;;3.63;3.07;;;3.90;99.90;;;;;;5048761;28;20265;-69
2022/01/24 05:53:35;;;;;;;3.90;3.50;;;3.80;99.90;;;;;;5057556;28;20226;-68
2022/01/24 05:56:01;;;;;;;4.40;3.47;;;3.90;99.90;;;;;;5055180;28;20220;-69
2022/01/24 05:58:27;;;;;;;3.43;3.00;;;3.80;99.90;;;;;;5045506;28;20228;-69
2022/01/24 06:00:53;;;;;;;5.13;2.87;;;3.90;99.90;;;;;;5045092;28;20227;-70
2022/01/24 06:03:20;;;;;;;3.20;2.37;;;3.80;99.90;;;;;;5046617;28;20216;-69
2022/01/24 06:05:46;;;;;;;4.40;3.33;;;3.80;99.90;;;;;;5040085;28;20456;-70
2022/01/24 06:08:12;;;;;;;2.70;2.50;;;3.80;99.90;;;;;;5043953;28;20619;-69
2022/01/24 06:10:39;;;;;;;2.80;2.50;;;3.90;99.90;;;;;;5048959;28;20219;-69
2022/01/24 06:13:06;;;;;;;3.87;2.90;;;3.90;99.90;;;;;;5048462;28;20219;-69
2022/01/24 06:15:32;;;;;;;6.80;4.27;;;3.90;99.90;;;;;;5048759;28;20450;-69
2022/01/24 06:17:57;;;;;;;4.43;3.30;;;3.90;99.90;;;;;;5047884;28;20454;-69
2022/01/24 06:20:24;;;;;;;5.50;3.53;;;3.90;99.90;;;;;;5040225;28;20298;-69
2022/01/24 06:22:50;;;;;;;4.27;3.20;;;3.90;99.90;;;;;;5048895;28;20216;-70
2022/01/24 06:25:21;;;;;;;3.73;2.90;;;3.80;99.90;;;;;;5049997;28;20446;-69
2022/01/24 06:27:47;;;;;;;5.20;3.40;;;3.80;99.90;;;;;;5048586;28;20220;-70
2022/01/24 06:30:13;;;;;;;4.40;3.00;;;3.80;99.90;;;;;;5048109;28;20446;-70
2022/01/24 06:32:39;;;;;;;4.50;2.93;;;3.90;99.90;;;;;;5049930;28;20218;-69
2022/01/24 06:35:07;;;;;;;5.10;3.40;;;3.80;99.90;;;;;;5046248;28;20231;-69
2022/01/24 06:37:33;;;;;;;5.70;2.90;;;3.90;99.90;;;;;;5033540;28;20512;-70
2022/01/24 06:39:59;;;;;;;3.93;3.17;;;3.80;99.90;;;;;;5053486;28;20470;-69
2022/01/24 06:42:24;;;;;;;6.23;3.90;;;3.90;99.90;;;;;;5053120;28;20215;-70
2022/01/24 06:44:53;;;;;;;3.53;3.23;;;3.90;99.90;;;;;;5056862;28;20217;-70
2022/01/24 06:47:19;;;;;;;6.30;3.13;;;3.90;99.90;;;;;;5059863;28;20231;-69
2022/01/24 06:49:45;;;;;;;3.87;3.30;;;3.90;99.90;;;;;;5053955;28;20473;-70
2022/01/24 06:52:13;;;;;;;3.60;3.30;;;3.90;99.90;;;;;;5035714;28;20461;-69
2022/01/24 06:54:41;;;;;;;3.20;2.60;;;3.90;99.90;;;;;;5052460;28;20485;-69
2022/01/24 06:57:08;;;;;;;5.03;3.60;;;3.90;99.90;;;;;;5049517;28;20455;-70
2022/01/24 06:59:35;;;;;;;3.80;2.83;;;3.90;99.90;;;;;;5058964;28;20501;-70
2022/01/24 07:02:01;;;;;;;5.00;3.57;;;3.90;99.90;;;;;;5060842;28;20501;-69
2022/01/24 07:04:27;;;;;;;5.43;3.80;;;3.90;99.90;;;;;;5066606;28;20493;-69
2022/01/24 07:06:52;;;;;;;3.33;3.03;;;3.90;99.90;;;;;;5027874;28;20459;-69
2022/01/24 07:09:19;;;;;;;5.50;3.77;;;3.90;99.90;;;;;;5050452;28;20249;-69
2022/01/24 07:11:44;;;;;;;4.40;3.97;;;3.90;99.90;;;;;;5067773;28;20703;-70
2022/01/24 07:14:13;;;;;;;5.33;3.90;;;3.90;99.90;;;;;;5082941;28;20554;-70
2022/01/24 07:19:28;;;;;;;6.40;3.70;;;4.00;99.90;;;;;;5066695;28;20555;-69
2022/01/24 07:21:55;;;;;;;6.13;4.60;;;4.00;99.90;;;;;;5069220;28;20454;-70
2022/01/24 07:24:21;;;;;;;8.03;5.10;;;4.00;99.90;;;;;;5067620;28;20456;-69
2022/01/24 07:26:46;;;;;;;6.80;4.60;;;4.00;99.90;;;;;;5053290;28;20836;-69
2022/01/24 07:29:12;;;;;;;7.27;5.47;;;4.00;99.90;;;;;;5067576;28;20216;-70
2022/01/24 07:31:38;;;;;;;10.10;5.80;;;4.00;99.90;;;;;;5058361;28;20219;-69
2022/01/24 07:34:04;;;;;;;9.57;5.67;;;4.00;99.90;;;;;;5032858;28;20283;-70
2022/01/24 07:36:29;;;;;;;9.97;6.57;;;4.00;99.90;;;;;;5022832;28;20266;-69
2022/01/24 07:38:55;;;;;;;8.40;5.57;;;4.00;99.90;;;;;;5049033;28;20341;-69
2022/01/24 07:41:27;;;;;;;9.87;5.60;;;4.00;99.90;;;;;;5067210;28;20303;-70
2022/01/24 07:43:55;;;;;;;9.67;5.77;;;4.00;99.90;;;;;;5083653;28;20211;-70
2022/01/24 07:46:20;;;;;;;8.43;6.07;;;4.00;99.90;;;;;;5048894;28;20456;-70
2022/01/24 07:48:46;;;;;;;5.80;4.10;;;4.00;99.90;;;;;;5050207;28;20975;-70
2022/01/24 07:51:15;;;;;;;6.37;4.30;;;4.00;99.90;;;;;;5064642;28;20308;-70
2022/01/24 07:53:41;;;;;;;6.30;4.40;;;4.00;99.90;;;;;;5051605;28;20825;-70
2022/01/24 07:56:09;;;;;;;5.27;4.27;;;4.00;99.90;;;;;;5042333;28;20449;-71
2022/01/24 07:58:34;;;;;;;6.30;4.20;;;4.10;99.90;;;;;;5059776;28;20486;-70
2022/01/24 08:01:00;;;;;;;8.43;5.10;;;4.00;99.90;;;;;;5062808;28;20470;-70
2022/01/24 08:03:26;;;;;;;4.87;4.20;;;4.10;99.90;;;;;;5053533;28;20228;-70
2022/01/24 08:05:52;;;;;;;10.03;5.47;;;4.00;99.90;;;;;;5048118;28;20208;-70
2022/01/24 08:08:18;;;;;;;7.60;4.93;;;4.10;99.90;;;;;;5049024;28;20447;-69
2022/01/24 08:10:44;;;;;;;11.03;6.40;;;4.10;99.90;;;;;;5048177;28;20457;-70
2022/01/24 08:13:10;;;;;;;17.13;7.80;;;4.10;99.90;;;;;;5027958;28;20459;-69
2022/01/24 08:15:36;;;;;;;12.10;7.43;;;4.10;99.90;;;;;;5041807;28;20212;-70
2022/01/24 08:18:01;;;;;;;9.67;6.10;;;4.10;99.90;;;;;;5035349;28;20359;-70
2022/01/24 08:20:27;;;;;;;11.93;6.43;;;4.10;99.90;;;;;;5047733;28;20220;-70
2022/01/24 08:22:53;;;;;;;12.87;6.60;;;4.10;99.90;;;;;;5045670;28;20216;-71
2022/01/24 08:25:19;;;;;;;7.63;5.47;;;4.10;99.90;;;;;;5023723;28;20366;-70
2022/01/24 08:27:47;;;;;;;9.00;5.97;;;4.10;99.90;;;;;;5029175;28;20690;-70
2022/01/24 08:30:16;;;;;;;11.20;6.00;;;4.10;99.90;;;;;;5029079;28;20802;-70
2022/01/24 08:32:42;;;;;;;14.50;7.80;;;4.20;99.90;;;;;;5048754;28;20492;-71
2022/01/24 08:35:09;;;;;;;14.93;7.10;;;4.20;99.90;;;;;;5048587;28;20500;-70
2022/01/24 08:37:36;;;;;;;15.70;7.73;;;4.20;99.90;;;;;;5048113;28;20224;-70
2022/01/24 08:40:03;;;;;;;14.87;8.20;;;4.20;99.90;;;;;;5025585;28;20482;-71
2022/01/24 08:42:39;;;;;;;13.80;7.90;;;4.20;99.90;;;;;;5030750;28;20451;-70
2022/01/24 08:47:35;;;;;;;10.63;6.90;;;4.20;99.90;;;;;;5056978;28;20548;-68
2022/01/24 08:50:03;;;;;;;12.07;6.60;;;4.20;99.90;;;;;;5044015;28;20985;-70
2022/01/24 08:52:29;;;;;;;8.33;6.97;;;4.20;99.90;;;;;;5043465;28;20517;-69
2022/01/24 08:54:54;;;;;;;7.30;5.93;;;4.20;99.90;;;;;;5055350;28;20517;-71
2022/01/24 08:57:25;;;;;;;7.40;5.50;;;4.20;99.90;;;;;;5056285;28;20229;-70
2022/01/24 08:59:55;;;;;;;6.60;4.77;;;4.20;99.90;;;;;;5059059;28;20230;-70
2022/01/24 09:02:22;;;;;;;7.90;5.57;;;4.30;99.90;;;;;;5033381;28;20470;-68
2022/01/24 09:04:49;;;;;;;5.20;4.60;;;4.30;99.90;;;;;;5044684;28;20478;-70
2022/01/24 09:07:17;;;;;;;9.37;4.70;;;4.30;99.90;;;;;;5028659;28;20451;-69
2022/01/24 09:09:43;;;;;;;4.90;3.87;;;4.30;99.90;;;;;;5033125;28;20473;-70
2022/01/24 09:12:12;;;;;;;6.93;4.47;;;4.30;99.90;;;;;;5051953;28;20455;-70
2022/01/24 09:14:47;;;;;;;7.53;5.40;;;4.30;99.90;;;;;;5051818;28;20461;-71
2022/01/24 09:17:15;;;;;;;5.83;4.60;;;4.30;99.90;;;;;;5058059;28;20472;-68
2022/01/24 09:19:41;;;;;;;4.90;3.47;;;4.30;99.90;;;;;;5055418;28;20473;-71
2022/01/24 09:22:07;;;;;;;6.30;3.63;;;4.30;99.90;;;;;;5046294;28;20454;-70
2022/01/24 09:24:33;;;;;;;7.00;4.27;;;4.30;99.90;;;;;;5049299;28;20466;-70
2022/01/24 09:26:59;;;;;;;5.00;3.37;;;4.30;99.90;;;;;;5030902;28;20228;-71
2022/01/24 09:29:25;;;;;;;4.50;3.60;;;4.30;99.90;;;;;;5031791;28;21003;-71
2022/01/24 09:31:51;;;;;;;4.10;2.83;;;4.30;99.90;;;;;;5024600;28;20456;-70
2022/01/24 09:34:20;;;;;;;5.80;3.00;;;4.30;99.90;;;;;;5060883;28;20454;-70
2022/01/24 09:36:47;;;;;;;3.97;3.50;;;4.30;99.90;;;;;;5057661;28;20238;-70
2022/01/24 09:39:17;;;;;;;4.40;3.40;;;4.30;99.90;;;;;;5045148;28;20504;-70
2022/01/24 09:41:44;;;;;;;5.60;3.80;;;4.30;99.90;;;;;;5046144;28;20489;-71
2022/01/24 09:44:13;;;;;;;3.97;3.10;;;4.30;99.90;;;;;;5041482;28;20542;-69
2022/01/24 09:46:44;;;;;;;3.30;2.80;;;4.40;99.90;;;;;;5060163;28;20561;-70
2022/01/24 09:49:10;;;;;;;5.73;3.53;;;4.40;99.90;;;;;;5042651;28;20466;-71
2022/01/24 09:51:37;;;;;;;6.57;3.70;;;4.40;99.90;;;;;;5040517;28;20454;-70
2022/01/24 09:54:05;;;;;;;4.77;3.67;;;4.40;99.90;;;;;;5028935;28;20466;-70
2022/01/24 09:56:32;;;;;;;7.10;4.77;;;4.40;99.90;;;;;;5025670;28;20457;-70
2022/01/24 09:58:58;;;;;;;7.30;4.10;;;4.40;99.90;;;;;;5052976;28;20467;-70
2022/01/24 10:01:23;;;;;;;6.40;4.03;;;4.40;99.90;;;;;;5045957;28;20451;-70
2022/01/24 10:04:06;;;;;;;11.00;4.97;;;4.40;99.90;;;;;;5046315;28;20446;-70
2022/01/24 10:06:54;;;;;;;5.60;3.60;;;4.40;99.90;;;;;;5038733;28;20709;-71
2022/01/24 10:09:38;;;;;;;5.57;3.37;;;4.40;99.90;;;;;;5049333;28;20438;-69
2022/01/24 10:12:18;;;;;;;4.73;4.17;;;4.50;99.90;;;;;;5057014;28;20896;-70
2022/01/24 10:17:31;;;;;;;7.40;5.10;;;4.50;99.90;;;;;;5046687;28;20551;-69
2022/01/24 10:19:57;;;;;;;10.10;6.43;;;4.50;99.90;;;;;;5045080;28;21036;-70
2022/01/24 10:22:25;;;;;;;13.10;7.87;;;4.50;99.90;;;;;;5022995;28;20454;-70
2022/01/24 10:24:54;;;;;;;10.40;7.47;;;4.50;99.90;;;;;;5015837;28;20498;-71
2022/01/24 10:27:28;;;;;;;12.50;7.70;;;4.50;99.90;;;;;;5034842;28;20463;-70
2022/01/24 10:29:56;;;;;;;14.50;9.23;;;4.50;99.90;;;;;;5043353;28;20454;-71
2022/01/24 10:32:35;;;;;;;13.37;8.00;;;4.50;99.90;;;;;;5043278;28;20455;-67
2022/01/24 10:35:28;;;;;;;13.80;7.30;;;4.50;99.90;;;;;;5028828;28;20544;-70
2022/01/24 10:38:20;;;;;;;9.73;7.80;;;4.50;99.90;;;;;;5028339;28;20552;-69
2022/01/24 10:41:49;;;;;;;10.20;6.80;;;4.50;99.90;;;;;;5045502;28;20573;-69
2022/01/24 10:43:37;;;;;;;8.07;5.20;;;4.60;99.90;;;;;;5046894;28;20477;-70
2022/01/24 10:46:04;;;;;;;6.20;4.27;;;4.60;99.90;;;;;;5043862;28;20439;-70
2022/01/24 10:48:32;;;;;;;5.67;3.50;;;4.60;99.90;;;;;;5037673;28;20450;-70
2022/01/24 10:51:15;;;;;;;4.50;3.87;;;4.60;99.90;;;;;;5049269;28;20482;-69
2022/01/24 10:53:46;;;;;;;6.20;4.10;;;4.60;99.90;;;;;;5048217;28;20452;-70
2022/01/24 10:56:24;;;;;;;8.17;4.20;;;4.60;99.90;;;;;;5027589;28;20442;-69
2022/01/24 10:58:50;;;;;;;5.63;4.10;;;4.60;99.90;;;;;;5036967;28;20477;-69
2022/01/24 11:01:22;;;;;;;3.50;3.03;;;4.60;99.90;;;;;;5039181;28;20444;-70
2022/01/24 11:04:04;;;;;;;4.77;3.40;;;4.60;99.90;;;;;;5032463;28;20531;-71
2022/01/24 11:06:33;;;;;;;5.40;3.33;;;4.60;99.90;;;;;;5044521;28;20540;-70
2022/01/24 11:09:22;;;;;;;4.57;3.27;;;4.60;99.90;;;;;;5024945;28;20462;-69
2022/01/24 11:11:57;;;;;;;4.27;3.20;;;4.60;99.90;;;;;;5026661;28;20458;-69
2022/01/24 11:14:25;;;;;;;3.70;2.90;;;4.60;99.90;;;;;;5047890;28;20483;-70
2022/01/24 11:16:53;;;;;;;5.03;2.77;;;4.60;99.90;;;;;;5055289;28;20587;-70
2022/01/24 11:19:27;;;;;;;2.93;2.73;;;4.70;99.90;;;;;;5058706;28;20544;-69
2022/01/24 11:21:55;;;;;;;4.37;3.67;;;4.70;99.90;;;;;;5061022;28;20469;-71
2022/01/24 11:24:28;;;;;;;4.77;3.47;;;4.70;99.90;;;;;;5067862;28;20442;-71
2022/01/24 11:26:54;;;;;;;6.00;3.70;;;4.70;99.90;;;;;;5066734;28;20936;-70
2022/01/24 11:29:20;;;;;;;9.60;3.57;;;4.70;99.90;;;;;;5047831;28;20537;-70
2022/01/24 11:31:57;;;;;;;2.80;2.60;;;4.70;99.90;;;;;;5050709;28;20315;-71
2022/01/24 11:34:37;;;;;;;5.70;3.00;;;4.70;99.90;;;;;;5045271;28;20477;-70
2022/01/24 11:37:04;;;;;;;3.17;2.90;;;4.80;99.90;;;;;;5031244;28;20545;-71
2022/01/24 11:39:30;;;;;;;4.70;3.63;;;4.80;99.90;;;;;;5049957;28;21001;-71
2022/01/24 11:41:57;;;;;;;3.90;2.97;;;4.80;99.90;;;;;;5048243;28;20533;-70
2022/01/24 11:44:23;;;;;;;3.80;3.17;;;4.80;99.90;;;;;;5045043;28;20451;-71
2022/01/24 11:46:59;;;;;;;3.53;3.23;;;4.80;99.90;;;;;;5047117;28;21043;-69
2022/01/24 11:49:27;;;;;;;5.13;3.40;;;4.80;99.90;;;;;;5043550;28;20481;-70
2022/01/24 11:52:02;;;;;;;4.53;3.70;;;4.90;99.90;;;;;;5028696;28;20542;-71
2022/01/24 11:55:06;;;;;;;5.37;3.17;;;4.90;99.90;;;;;;5031482;28;20453;-70
2022/01/24 11:57:36;;;;;;;5.07;3.13;;;4.90;99.90;;;;;;5058808;28;20539;-70
2022/01/24 12:00:05;;;;;;;5.60;3.57;;;4.90;99.90;;;;;;5058853;28;20478;-70
2022/01/24 12:02:42;;;;;;;5.03;3.40;;;4.90;99.90;;;;;;5054873;28;20484;-70
2022/01/24 12:05:16;;;;;;;3.83;3.53;;;4.90;99.90;;;;;;5047700;28;20512;-69
2022/01/24 12:07:47;;;;;;;4.33;3.47;;;5.00;99.90;;;;;;5048107;28;20473;-71
2022/01/24 12:10:22;;;;;;;4.10;3.40;;;5.00;99.90;;;;;;5046689;28;20477;-70
2022/01/24 12:13:13;;;;;;;5.30;3.10;;;5.00;99.90;;;;;;5034786;28;20450;-69
2022/01/24 12:15:39;;;;;;;4.00;3.43;;;5.00;99.90;;;;;;5063672;28;20445;-70
2022/01/24 12:18:06;;;;;;;4.63;3.27;;;5.00;99.90;;;;;;5070005;28;20564;-69
2022/01/24 12:20:31;;;;;;;6.63;4.23;;;5.00;99.90;;;;;;5065931;28;20224;-70
2022/01/24 12:23:21;;;;;;;4.87;3.47;;;5.00;99.90;;;;;;5059584;28;20450;-70
2022/01/24 12:26:00;;;;;;;5.40;4.10;;;5.00;99.90;;;;;;5050357;28;20215;-69
2022/01/24 12:28:30;;;;;;;7.87;4.60;;;5.00;99.90;;;;;;5065390;28;20504;-70
2022/01/24 12:31:25;;;;;;;6.57;4.63;;;5.00;99.90;;;;;;5050173;28;20466;-70
2022/01/24 12:33:53;;;;;;;11.57;6.07;;;5.00;99.90;;;;;;5002995;28;20443;-69
2022/01/24 12:36:37;;;;;;;12.47;6.67;;;5.10;99.90;;;;;;5056744;28;20455;-69
2022/01/24 12:39:16;;;;;;;12.00;7.50;;;5.10;99.90;;;;;;5029786;28;20491;-69
2022/01/24 12:41:50;;;;;;;12.17;6.67;;;5.10;99.90;;;;;;5036029;28;20487;-70
2022/01/24 12:47:14;;;;;;;8.53;4.50;;;5.10;99.90;;;;;;5048722;28;20465;-70
2022/01/24 12:49:41;;;;;;;3.80;3.07;;;5.20;99.90;;;;;;5051671;28;20877;-70
2022/01/24 12:52:15;;;;;;;4.70;3.83;;;5.20;99.90;;;;;;5050871;28;20465;-71
2022/01/24 12:54:47;;;;;;;9.47;3.67;;;5.20;99.90;;;;;;5045622;28;21051;-71
2022/01/24 12:57:18;;;;;;;7.07;4.07;;;5.10;99.90;;;;;;5050634;28;20462;-70
2022/01/24 12:59:55;;;;;;;4.90;4.00;;;5.10;99.90;;;;;;5070919;28;20466;-70
2022/01/24 13:02:27;;;;;;;4.33;3.70;;;5.20;99.90;;;;;;5050525;28;20977;-69
2022/01/24 13:04:59;;;;;;;5.83;3.70;;;5.20;99.90;;;;;;5055960;28;20463;-70
2022/01/24 13:07:25;;;;;;;6.03;3.90;;;5.20;99.90;;;;;;5048620;28;20504;-70
2022/01/24 13:09:51;;;;;;;5.57;3.50;;;5.20;99.90;;;;;;5031309;28;20454;-70
2022/01/24 13:12:21;;;;;;;10.93;5.87;;;5.20;99.90;;;;;;5059097;28;20244;-71
2022/01/24 13:25:26;;;;;;;6.57;3.70;;;5.30;99.90;;;;;;5061288;28;20469;-69
2022/01/24 13:27:59;;;;;;;5.20;3.73;;;5.30;99.90;;;;;;5027219;28;20544;-71
2022/01/24 13:30:41;;;;;;;3.93;3.07;;;5.30;99.90;;;;;;5048291;28;20453;-71
2022/01/24 13:33:21;;;;;;;3.73;3.23;;;5.30;99.90;;;;;;5049456;28;20542;-71
2022/01/24 13:35:51;;;;;;;5.37;4.00;;;5.30;99.90;;;;;;5047072;28;20482;-71
2022/01/24 13:38:41;;;;;;;6.67;4.93;;;5.30;99.90;;;;;;5047315;28;20465;-68
2022/01/24 13:41:12;;;;;;;6.50;4.27;;;5.40;99.90;;;;;;5041294;28;20449;-70
2022/01/24 13:43:45;;;;;;;5.13;4.23;;;5.40;99.90;;;;;;5051645;28;20556;-70
2022/01/24 13:46:22;;;;;;;5.90;3.80;;;5.40;99.90;;;;;;5065991;28;20456;-71
2022/01/24 13:48:51;;;;;;;4.30;2.70;;;5.40;99.90;;;;;;5068000;28;20571;-70
2022/01/24 13:51:23;;;;;;;6.40;3.50;;;5.40;99.90;;;;;;5067824;28;20450;-70
2022/01/24 13:53:51;;;;;;;6.50;3.87;;;5.40;99.90;;;;;;5067565;28;20464;-70
2022/01/24 13:56:29;;;;;;;5.70;4.17;;;5.40;99.90;;;;;;5045201;28;20450;-70
2022/01/24 13:59:27;;;;;;;4.70;3.53;;;5.40;99.90;;;;;;5028073;28;21007;-70
2022/01/24 14:01:55;;;;;;;3.63;3.33;;;5.40;99.90;;;;;;5048233;28;20454;-69
2022/01/24 14:04:33;;;;;;;4.90;3.90;;;5.40;99.90;;;;;;5043327;28;20446;-70
2022/01/24 14:07:03;;;;;;;7.63;4.80;;;5.40;99.90;;;;;;5028693;28;20461;-70
2022/01/24 14:09:39;;;;;;;9.23;4.77;;;5.40;99.90;;;;;;5046457;28;20475;-71
2022/01/24 14:12:15;;;;;;;14.87;6.00;;;5.50;99.90;;;;;;5055262;28;20982;-70
2022/01/24 14:14:46;;;;;;;5.60;4.33;;;5.40;99.90;;;;;;5055212;28;20490;-70
2022/01/24 14:17:46;;;;;;;;;;;;;;;;;;;;;
2022/01/24 14:20:08;;;;;;;8.97;5.37;;;5.50;99.90;;;;;;5046701;28;20474;-71
2022/01/24 14:22:36;;;;;;;8.53;5.97;;;5.50;99.90;;;;;;5046847;28;20459;-71
2022/01/24 14:25:03;;;;;;;8.57;5.77;;;5.50;99.90;;;;;;5053333;28;20461;-71
2022/01/24 14:27:47;;;;;;;8.17;4.50;;;5.50;99.90;;;;;;5050223;28;20458;-71
2022/01/24 14:30:16;;;;;;;6.67;4.27;;;5.50;99.90;;;;;;5053474;28;20442;-69
2022/01/24 14:33:09;;;;;;;5.30;4.03;;;5.50;99.90;;;;;;5045942;28;20466;-71
2022/01/24 14:35:39;;;;;;;7.67;3.83;;;5.50;99.90;;;;;;5052165;28;20551;-71
2022/01/24 14:38:08;;;;;;;4.80;3.20;;;5.50;99.90;;;;;;5045651;28;20558;-70
2022/01/24 14:40:36;;;;;;;4.37;3.33;;;5.60;99.90;;;;;;5052469;28;20474;-71
2022/01/24 14:45:47;;;;;;;11.47;5.30;;;5.60;99.90;;;;;;5045247;28;20538;-69
2022/01/24 14:48:13;;;;;;;10.47;4.40;;;5.60;99.90;;;;;;5046341;28;20533;-70
2022/01/24 14:50:39;;;;;;;4.70;4.17;;;5.60;99.90;;;;;;5047269;28;20224;-70
2022/01/24 14:53:07;;;;;;;12.63;5.87;;;5.60;99.90;;;;;;5019892;28;20223;-71
2022/01/24 14:55:34;;;;;;;10.80;6.03;;;5.60;99.90;;;;;;5046676;28;20230;-70
2022/01/24 14:58:00;;;;;;;11.03;5.67;;;5.60;99.90;;;;;;5047367;28;20462;-70
2022/01/24 15:00:35;;;;;;;7.03;4.93;;;5.60;99.90;;;;;;5059123;28;20517;-71
2022/01/24 15:03:00;;;;;;;5.27;3.50;;;5.70;99.90;;;;;;5047191;28;20230;-71
2022/01/24 15:05:26;;;;;;;5.27;4.03;;;5.70;99.90;;;;;;5057137;28;20465;-68
2022/01/24 15:07:52;;;;;;;6.50;3.67;;;5.70;99.90;;;;;;5057552;28;20232;-70
2022/01/24 15:10:18;;;;;;;3.00;2.40;;;5.70;99.90;;;;;;5052502;28;21175;-68
2022/01/24 15:12:50;;;;;;;5.97;3.00;;;5.70;99.90;;;;;;5026873;28;20223;-71
2022/01/24 15:15:18;;;;;;;3.33;2.90;;;5.70;99.90;;;;;;5043010;28;20450;-69
2022/01/24 15:25:50;;;;;;;2.57;2.23;;;5.70;99.90;;;;;;5028057;28;21030;-69
2022/01/24 15:28:17;;;;;;;3.27;2.87;;;5.70;99.90;;;;;;5046336;28;20454;-69
2022/01/24 15:30:43;;;;;;;5.23;3.37;;;5.70;99.90;;;;;;5048826;28;20219;-71
2022/01/24 15:33:09;;;;;;;5.10;3.33;;;5.70;99.90;;;;;;5046947;28;20543;-71
2022/01/24 15:35:35;;;;;;;5.60;3.10;;;5.80;99.90;;;;;;5041895;28;20219;-71